Time;durP1;ratioP1;P1;durP2;ratioP2;P2;SDS_P1;SDS_P2;PMS_P1;PMS_P2;Temp;Humidity;BMP_temperature;BMP_pressure;BME280_temperature;BME280_humidity;BME280_pressure;Samples;Min_cycle;Max_cycle;Signal;HPM_P1;HPM_P2
2021/08/10 00:00:07;;;;;;;;;;;19.10;70.10;;;;;;491631;240;1197;-46
2021/08/10 00:02:08;;;;;;;;;;;19.00;70.00;;;;;;491659;240;1364;-47
2021/08/10 00:04:10;;;;;;;;;;;19.00;70.10;;;;;;492075;240;1132;-46
2021/08/10 00:06:11;;;;;;;;;;;19.00;70.10;;;;;;491674;240;1018;-46
2021/08/10 00:08:12;;;;;;;;;;;19.00;70.10;;;;;;492060;240;1074;-47
2021/08/10 00:10:14;;;;;;;;;;;19.00;70.10;;;;;;491739;240;1033;-47
2021/08/10 00:12:15;;;;;;;;;;;19.00;70.10;;;;;;491511;240;1035;-47
2021/08/10 00:14:16;;;;;;;;;;;19.10;70.10;;;;;;491813;240;1297;-46
2021/08/10 00:16:18;;;;;;;;;;;19.00;70.10;;;;;;491735;240;2192;-46
2021/08/10 00:18:19;;;;;;;;;;;19.00;70.10;;;;;;491495;242;1095;-46
2021/08/10 00:20:20;;;;;;;;;;;19.00;70.10;;;;;;492009;240;1091;-46
2021/08/10 00:22:22;;;;;;;;;;;19.00;70.00;;;;;;491566;240;1055;-46
2021/08/10 00:24:23;;;;;;;;;;;19.00;70.10;;;;;;491757;240;972;-46
2021/08/10 00:26:24;;;;;;;;;;;19.00;70.10;;;;;;491682;240;1065;-47
2021/08/10 00:28:26;;;;;;;;;;;19.00;70.20;;;;;;492012;240;1083;-47
2021/08/10 00:30:27;;;;;;;;;;;18.90;70.20;;;;;;491655;240;1309;-47
2021/08/10 00:32:28;;;;;;;;;;;18.90;70.20;;;;;;491834;240;1064;-47
2021/08/10 00:34:29;;;;;;;;;;;19.00;70.10;;;;;;491591;240;1024;-47
2021/08/10 00:36:31;;;;;;;;;;;18.90;70.20;;;;;;492030;240;2172;-46
2021/08/10 00:38:32;;;;;;;;;;;18.90;70.30;;;;;;491830;240;1048;-46
2021/08/10 00:40:33;;;;;;;;;;;18.90;70.20;;;;;;492038;240;1038;-46
2021/08/10 00:42:35;;;;;;;;;;;18.90;70.10;;;;;;491948;240;1035;-47
2021/08/10 00:44:36;;;;;;;;;;;18.90;70.00;;;;;;491587;240;1254;-46
2021/08/10 00:46:37;;;;;;;;;;;18.90;70.10;;;;;;491634;240;1068;-47
2021/08/10 00:48:39;;;;;;;;;;;18.90;70.10;;;;;;491744;240;1193;-47
2021/08/10 00:50:40;;;;;;;;;;;18.90;70.20;;;;;;491754;240;1065;-46
2021/08/10 00:52:43;;;;;;;;;;;18.90;70.20;;;;;;491879;240;1057;-47
2021/08/10 00:54:44;;;;;;;;;;;18.90;70.20;;;;;;491730;240;1070;-46
2021/08/10 00:56:45;;;;;;;;;;;18.90;70.20;;;;;;491488;240;2152;-46
2021/08/10 00:58:47;;;;;;;;;;;18.90;70.20;;;;;;491730;240;998;-46
2021/08/10 01:00:48;;;;;;;;;;;18.90;70.30;;;;;;491649;240;1166;-47
2021/08/10 01:02:49;;;;;;;;;;;18.90;70.20;;;;;;491705;240;1181;-47
2021/08/10 01:04:51;;;;;;;;;;;18.90;70.20;;;;;;491992;240;1038;-46
2021/08/10 01:06:52;;;;;;;;;;;18.90;70.20;;;;;;491549;240;1031;-46
2021/08/10 01:08:53;;;;;;;;;;;18.90;70.20;;;;;;491566;240;1069;-47
2021/08/10 01:10:55;;;;;;;;;;;18.90;70.20;;;;;;491547;240;1099;-47
2021/08/10 01:12:56;;;;;;;;;;;18.90;70.30;;;;;;491863;240;1164;-47
2021/08/10 01:14:57;;;;;;;;;;;18.90;70.30;;;;;;491661;240;1130;-46
2021/08/10 01:17:00;;;;;;;;;;;18.90;70.20;;;;;;491544;240;2204;-46
2021/08/10 01:19:00;;;;;;;;;;;18.90;70.30;;;;;;491572;240;1330;-47
2021/08/10 01:21:02;;;;;;;;;;;18.80;70.30;;;;;;491529;240;1040;-46
2021/08/10 01:23:03;;;;;;;;;;;18.80;70.30;;;;;;491489;240;1020;-46
2021/08/10 01:25:04;;;;;;;;;;;18.80;70.30;;;;;;492022;240;1165;-46
2021/08/10 01:27:06;;;;;;;;;;;18.90;70.50;;;;;;491492;240;1174;-47
2021/08/10 01:29:07;;;;;;;;;;;18.80;70.40;;;;;;491698;240;1101;-46
2021/08/10 01:31:08;;;;;;;;;;;18.90;70.30;;;;;;491657;240;1374;-47
2021/08/10 01:33:10;;;;;;;;;;;18.90;70.30;;;;;;491663;240;1086;-47
2021/08/10 01:35:11;;;;;;;;;;;18.80;70.30;;;;;;492042;240;1079;-46
2021/08/10 01:37:12;;;;;;;;;;;18.80;70.30;;;;;;491886;240;2137;-47
2021/08/10 01:39:14;;;;;;;;;;;18.80;70.30;;;;;;491501;240;1076;-47
2021/08/10 01:41:15;;;;;;;;;;;18.80;70.30;;;;;;491523;240;1155;-46
2021/08/10 01:43:16;;;;;;;;;;;18.80;70.30;;;;;;491988;240;1217;-47
2021/08/10 01:45:17;;;;;;;;;;;18.80;70.30;;;;;;491808;240;1179;-47
2021/08/10 01:47:19;;;;;;;;;;;18.80;70.20;;;;;;491796;240;1189;-47
2021/08/10 01:49:20;;;;;;;;;;;18.90;70.30;;;;;;491553;240;1080;-46
2021/08/10 01:51:21;;;;;;;;;;;18.80;70.30;;;;;;491762;240;1195;-46
2021/08/10 01:53:23;;;;;;;;;;;18.80;70.40;;;;;;491904;240;1191;-46
2021/08/10 01:55:24;;;;;;;;;;;18.80;70.40;;;;;;491754;240;1022;-47
2021/08/10 01:57:25;;;;;;;;;;;18.80;70.40;;;;;;491441;240;2192;-46
2021/08/10 01:59:27;;;;;;;;;;;18.80;70.40;;;;;;491974;240;1138;-47
2021/08/10 02:01:28;;;;;;;;;;;18.80;70.50;;;;;;491636;240;1207;-47
2021/08/10 02:03:30;;;;;;;;;;;18.80;70.40;;;;;;491709;240;1043;-46
2021/08/10 02:05:31;;;;;;;;;;;18.80;70.40;;;;;;491547;240;1042;-47
2021/08/10 02:07:32;;;;;;;;;;;18.80;70.30;;;;;;491951;240;1054;-46
2021/08/10 02:09:34;;;;;;;;;;;18.80;70.30;;;;;;491987;240;1073;-47
2021/08/10 02:11:35;;;;;;;;;;;18.80;70.30;;;;;;491974;240;1180;-46
2021/08/10 02:13:36;;;;;;;;;;;18.80;70.40;;;;;;491524;240;1046;-47
2021/08/10 02:15:38;;;;;;;;;;;18.80;70.40;;;;;;491530;240;1177;-46
2021/08/10 02:17:39;;;;;;;;;;;18.80;70.50;;;;;;491551;240;2176;-47
2021/08/10 02:19:40;;;;;;;;;;;18.80;70.50;;;;;;491655;240;1116;-47
2021/08/10 02:21:42;;;;;;;;;;;18.80;70.40;;;;;;491810;240;1063;-46
2021/08/10 02:23:43;;;;;;;;;;;18.80;70.50;;;;;;492015;240;1043;-46
2021/08/10 02:25:44;;;;;;;;;;;18.70;70.50;;;;;;492048;240;1202;-47
2021/08/10 02:27:46;;;;;;;;;;;18.70;70.50;;;;;;491669;240;1049;-47
2021/08/10 02:29:47;;;;;;;;;;;18.70;70.50;;;;;;491903;240;1065;-46
2021/08/10 02:31:48;;;;;;;;;;;18.80;70.50;;;;;;491664;240;1251;-46
2021/08/10 02:33:50;;;;;;;;;;;18.70;70.50;;;;;;491977;240;1056;-46
2021/08/10 02:35:51;;;;;;;;;;;18.70;70.50;;;;;;492054;240;1071;-47
2021/08/10 02:37:52;;;;;;;;;;;18.70;70.50;;;;;;491582;240;2189;-46
2021/08/10 02:39:54;;;;;;;;;;;18.70;70.50;;;;;;491547;240;1049;-46
2021/08/10 02:41:55;;;;;;;;;;;18.70;70.50;;;;;;491697;240;1098;-46
2021/08/10 02:43:56;;;;;;;;;;;18.70;70.60;;;;;;491627;240;1056;-46
2021/08/10 02:45:58;;;;;;;;;;;18.70;70.60;;;;;;491677;240;1155;-46
2021/08/10 02:47:59;;;;;;;;;;;18.70;70.50;;;;;;491761;240;1078;-46
2021/08/10 02:50:01;;;;;;;;;;;18.70;70.60;;;;;;491584;240;1064;-47
2021/08/10 02:52:01;;;;;;;;;;;18.80;70.60;;;;;;491454;240;1202;-47
2021/08/10 02:54:03;;;;;;;;;;;19.10;69.30;;;;;;491601;240;1085;-47
2021/08/10 02:56:04;;;;;;;;;;;19.40;68.30;;;;;;491582;240;2167;-47
2021/08/10 02:58:06;;;;;;;;;;;19.60;67.40;;;;;;491755;240;2148;-47
2021/08/10 03:00:07;;;;;;;;;;;19.80;66.60;;;;;;491565;240;1120;-47
2021/08/10 03:02:08;;;;;;;;;;;19.90;66.00;;;;;;491560;240;1159;-47
2021/08/10 03:04:09;;;;;;;;;;;20.10;65.70;;;;;;491752;240;1241;-47
2021/08/10 03:06:11;;;;;;;;;;;20.10;65.30;;;;;;491494;240;1221;-47
2021/08/10 03:08:12;;;;;;;;;;;20.20;65.00;;;;;;491797;240;1059;-46
2021/08/10 03:10:13;;;;;;;;;;;20.30;64.70;;;;;;491549;240;1111;-47
2021/08/10 03:12:15;;;;;;;;;;;20.40;64.60;;;;;;491897;240;1079;-47
2021/08/10 03:14:16;;;;;;;;;;;20.40;64.20;;;;;;491592;240;1017;-47
2021/08/10 03:16:18;;;;;;;;;;;20.50;64.00;;;;;;491854;240;1260;-47
2021/08/10 03:18:19;;;;;;;;;;;20.60;63.90;;;;;;492090;240;2129;-47
2021/08/10 03:20:20;;;;;;;;;;;20.50;63.80;;;;;;492052;240;1160;-47
2021/08/10 03:22:22;;;;;;;;;;;20.60;63.70;;;;;;491928;240;1148;-47
2021/08/10 03:24:23;;;;;;;;;;;20.70;63.50;;;;;;492075;240;1173;-47
2021/08/10 03:26:24;;;;;;;;;;;20.70;63.50;;;;;;491796;240;1265;-47
2021/08/10 03:28:26;;;;;;;;;;;20.70;63.40;;;;;;491436;240;1244;-47
2021/08/10 03:30:27;;;;;;;;;;;20.80;63.40;;;;;;491681;240;1029;-47
2021/08/10 03:32:28;;;;;;;;;;;20.80;63.20;;;;;;491590;240;1408;-47
2021/08/10 03:34:30;;;;;;;;;;;20.80;63.10;;;;;;491542;240;1225;-47
2021/08/10 03:36:31;;;;;;;;;;;20.80;63.00;;;;;;491545;240;1079;-47
2021/08/10 03:38:32;;;;;;;;;;;20.90;62.80;;;;;;491642;240;2137;-47
2021/08/10 03:40:34;;;;;;;;;;;20.90;62.80;;;;;;491902;240;1033;-47
2021/08/10 03:42:35;;;;;;;;;;;20.90;62.80;;;;;;491581;240;1041;-47
2021/08/10 03:44:41;;;;;;;;;;;21.00;62.70;;;;;;491647;240;1061;-47
2021/08/10 03:46:38;;;;;;;;;;;21.00;62.70;;;;;;491805;240;1637;-47
2021/08/10 03:48:39;;;;;;;;;;;21.00;62.60;;;;;;491756;240;1167;-46
2021/08/10 03:50:41;;;;;;;;;;;21.10;62.50;;;;;;492037;240;1224;-47
2021/08/10 03:52:42;;;;;;;;;;;21.10;62.40;;;;;;491911;240;1036;-47
2021/08/10 03:54:43;;;;;;;;;;;21.10;62.40;;;;;;491844;240;1256;-47
2021/08/10 03:56:46;;;;;;;;;;;21.20;62.20;;;;;;491542;240;1127;-47
2021/08/10 03:58:48;;;;;;;;;;;21.20;62.10;;;;;;491603;240;2176;-47
2021/08/10 04:00:47;;;;;;;;;;;21.20;62.10;;;;;;491587;240;1874;-47
2021/08/10 04:02:49;;;;;;;;;;;21.20;62.10;;;;;;491655;240;1214;-47
2021/08/10 04:04:50;;;;;;;;;;;21.20;61.90;;;;;;491602;240;1044;-47
2021/08/10 04:06:51;;;;;;;;;;;21.30;62.00;;;;;;491507;240;1046;-47
2021/08/10 04:08:53;;;;;;;;;;;21.30;61.90;;;;;;491997;240;1040;-47
2021/08/10 04:10:54;;;;;;;;;;;21.30;61.90;;;;;;491878;240;1061;-47
2021/08/10 04:12:56;;;;;;;;;;;21.30;61.80;;;;;;491581;240;1055;-47
2021/08/10 04:14:57;;;;;;;;;;;21.30;61.80;;;;;;492028;240;1112;-47
2021/08/10 04:16:58;;;;;;;;;;;21.30;61.80;;;;;;491467;240;1268;-47
2021/08/10 04:19:01;;;;;;;;;;;21.30;61.80;;;;;;492011;240;2184;-47
2021/08/10 04:21:02;;;;;;;;;;;21.40;61.80;;;;;;491925;240;1196;-47
2021/08/10 04:23:04;;;;;;;;;;;21.40;61.60;;;;;;491918;240;1044;-47
2021/08/10 04:25:05;;;;;;;;;;;21.40;61.70;;;;;;492019;240;1053;-47
2021/08/10 04:27:06;;;;;;;;;;;21.40;61.50;;;;;;491543;240;1065;-47
2021/08/10 04:29:08;;;;;;;;;;;21.40;61.50;;;;;;491674;240;1062;-47
2021/08/10 04:31:09;;;;;;;;;;;21.40;61.50;;;;;;491673;240;1479;-47
2021/08/10 04:33:10;;;;;;;;;;;21.50;61.40;;;;;;491502;240;1193;-47
2021/08/10 04:35:12;;;;;;;;;;;21.40;61.60;;;;;;491511;240;1138;-47
2021/08/10 04:37:13;;;;;;;;;;;21.50;61.50;;;;;;491430;240;1289;-47
2021/08/10 04:39:14;;;;;;;;;;;21.40;61.50;;;;;;491785;240;2140;-47
2021/08/10 04:41:16;;;;;;;;;;;21.40;61.50;;;;;;491676;240;1333;-47
2021/08/10 04:43:17;;;;;;;;;;;21.50;61.50;;;;;;491791;240;1101;-46
2021/08/10 04:45:18;;;;;;;;;;;21.50;61.50;;;;;;491529;240;1149;-47
2021/08/10 04:47:20;;;;;;;;;;;21.50;61.30;;;;;;491481;240;1393;-47
2021/08/10 04:49:21;;;;;;;;;;;21.50;61.40;;;;;;491695;240;1132;-47
2021/08/10 04:51:22;;;;;;;;;;;21.50;61.50;;;;;;491615;240;1343;-47
2021/08/10 04:53:23;;;;;;;;;;;21.60;61.40;;;;;;491279;240;1200;-46
2021/08/10 04:55:25;;;;;;;;;;;21.60;61.50;;;;;;491608;240;1102;-47
2021/08/10 04:57:26;;;;;;;;;;;21.60;61.40;;;;;;491220;240;1117;-47
2021/08/10 04:59:28;;;;;;;;;;;21.60;61.30;;;;;;491310;240;2212;-47
2021/08/10 05:01:29;;;;;;;;;;;21.60;61.30;;;;;;491452;240;1357;-47
2021/08/10 05:03:30;;;;;;;;;;;21.60;61.30;;;;;;491532;240;1158;-47
2021/08/10 05:05:32;;;;;;;;;;;21.60;61.40;;;;;;491353;240;1234;-47
2021/08/10 05:07:34;;;;;;;;;;;21.60;61.40;;;;;;491291;240;1205;-47
2021/08/10 05:09:34;;;;;;;;;;;21.70;61.30;;;;;;491399;240;2448;-47
2021/08/10 05:11:36;;;;;;;;;;;21.60;61.20;;;;;;491312;240;1334;-47
2021/08/10 05:13:37;;;;;;;;;;;21.70;61.30;;;;;;491389;240;1158;-47
2021/08/10 05:15:38;;;;;;;;;;;21.70;61.10;;;;;;491314;240;1243;-47
2021/08/10 05:17:40;;;;;;;;;;;21.70;61.10;;;;;;491279;240;1292;-47
2021/08/10 05:19:41;;;;;;;;;;;21.70;61.30;;;;;;491346;240;2141;-47
2021/08/10 05:21:42;;;;;;;;;;;21.70;61.10;;;;;;491329;240;1330;-47
2021/08/10 05:23:44;;;;;;;;;;;21.80;61.20;;;;;;491401;240;1229;-47
2021/08/10 05:25:45;;;;;;;;;;;21.70;61.10;;;;;;491315;240;1078;-47
2021/08/10 05:27:46;;;;;;;;;;;21.80;61.20;;;;;;491219;240;1145;-47
2021/08/10 05:29:48;;;;;;;;;;;21.70;61.80;;;;;;491324;240;1091;-47
2021/08/10 05:31:49;;;;;;;;;;;21.70;62.30;;;;;;491125;240;1380;-47
2021/08/10 05:33:50;;;;;;;;;;;21.50;62.60;;;;;;491264;240;1197;-47
2021/08/10 05:35:52;;;;;;;;;;;21.10;63.90;;;;;;491604;240;1109;-47
2021/08/10 05:37:53;;;;;;;;;;;20.80;65.20;;;;;;491249;240;1243;-46
2021/08/10 05:39:54;;;;;;;;;;;20.50;66.10;;;;;;491518;240;2188;-47
2021/08/10 05:41:56;;;;;;;;;;;20.30;66.90;;;;;;491374;241;1379;-47
2021/08/10 05:43:57;;;;;;;;;;;20.10;67.40;;;;;;491454;240;1140;-46
2021/08/10 05:45:59;;;;;;;;;;;20.10;67.70;;;;;;491202;240;1341;-47
2021/08/10 05:48:00;;;;;;;;;;;20.00;67.90;;;;;;491239;240;1174;-46
2021/08/10 05:50:01;;;;;;;;;;;19.90;68.20;;;;;;491475;240;1056;-46
2021/08/10 05:52:03;;;;;;;;;;;19.80;68.50;;;;;;491209;240;1183;-47
2021/08/10 05:54:04;;;;;;;;;;;19.80;68.70;;;;;;491226;240;1086;-46
2021/08/10 05:56:05;;;;;;;;;;;19.70;68.70;;;;;;491228;240;1107;-47
2021/08/10 05:58:07;;;;;;;;;;;19.70;68.80;;;;;;491231;240;1140;-47
2021/08/10 06:00:08;;;;;;;;;;;19.60;69.00;;;;;;491376;240;2180;-46
2021/08/10 06:02:09;;;;;;;;;;;19.60;69.00;;;;;;491243;240;1212;-47
2021/08/10 06:04:11;;;;;;;;;;;19.60;69.10;;;;;;491459;240;1189;-46
2021/08/10 06:06:12;;;;;;;;;;;19.60;69.20;;;;;;491337;240;1321;-46
2021/08/10 06:08:13;;;;;;;;;;;19.60;69.20;;;;;;491134;240;1285;-46
2021/08/10 06:10:15;;;;;;;;;;;19.50;69.40;;;;;;491280;240;1219;-47
2021/08/10 06:12:16;;;;;;;;;;;19.50;69.30;;;;;;491018;240;1165;-47
2021/08/10 06:14:18;;;;;;;;;;;19.50;69.30;;;;;;491263;240;1100;-46
2021/08/10 06:16:19;;;;;;;;;;;19.40;69.40;;;;;;491079;240;1210;-47
2021/08/10 06:18:20;;;;;;;;;;;19.40;69.50;;;;;;491217;240;1207;-46
2021/08/10 06:20:22;;;;;;;;;;;19.40;69.60;;;;;;491115;240;1126;-46
2021/08/10 06:22:23;;;;;;;;;;;19.30;69.60;;;;;;490923;240;1052;-46
2021/08/10 06:24:24;;;;;;;;;;;19.30;69.70;;;;;;491026;240;1194;-47
2021/08/10 06:26:26;;;;;;;;;;;19.30;69.60;;;;;;491089;240;1184;-47
2021/08/10 06:28:27;;;;;;;;;;;19.30;69.60;;;;;;491007;240;1142;-46
2021/08/10 06:30:28;;;;;;;;;;;19.40;69.50;;;;;;491255;240;1085;-46
2021/08/10 06:32:30;;;;;;;;;;;19.40;69.50;;;;;;491023;240;1107;-47
2021/08/10 06:34:31;;;;;;;;;;;19.30;69.60;;;;;;491045;240;1286;-47
2021/08/10 06:36:32;;;;;;;;;;;19.30;69.60;;;;;;491005;240;1195;-46
2021/08/10 06:38:33;;;;;;;;;;;19.30;69.70;;;;;;491005;240;2144;-46
2021/08/10 06:40:35;;;;;;;;;;;19.30;69.70;;;;;;491003;240;1197;-47
2021/08/10 06:42:36;;;;;;;;;;;19.30;69.70;;;;;;490797;240;1218;-47
2021/08/10 06:44:37;;;;;;;;;;;19.20;69.70;;;;;;490991;240;1101;-46
2021/08/10 06:46:39;;;;;;;;;;;19.20;69.80;;;;;;490749;240;1246;-47
2021/08/10 06:48:40;;;;;;;;;;;19.20;69.80;;;;;;490857;240;1232;-46
2021/08/10 06:50:42;;;;;;;;;;;19.20;69.90;;;;;;491055;240;1335;-46
2021/08/10 06:52:44;;;;;;;;;;;19.20;69.90;;;;;;491055;240;1275;-46
2021/08/10 06:54:44;;;;;;;;;;;19.20;70.00;;;;;;490983;240;1204;-46
2021/08/10 06:56:46;;;;;;;;;;;19.20;70.00;;;;;;490957;240;1149;-46
2021/08/10 06:58:47;;;;;;;;;;;19.10;70.10;;;;;;490880;240;2177;-47
2021/08/10 07:00:48;;;;;;;;;;;19.10;70.10;;;;;;490983;240;1154;-46
2021/08/10 07:02:50;;;;;;;;;;;19.20;70.10;;;;;;490863;240;1192;-47
2021/08/10 07:04:51;;;;;;;;;;;19.10;70.00;;;;;;490780;240;1211;-47
2021/08/10 07:06:52;;;;;;;;;;;19.20;70.00;;;;;;490748;240;1295;-47
2021/08/10 07:08:57;;;;;;;;;;;19.10;70.00;;;;;;490687;240;1239;-47
2021/08/10 07:10:55;;;;;;;;;;;19.20;70.00;;;;;;490781;240;2153;-47
2021/08/10 07:12:56;;;;;;;;;;;19.10;70.00;;;;;;490776;240;1103;-47
2021/08/10 07:14:58;;;;;;;;;;;19.10;70.10;;;;;;490892;240;1098;-47
2021/08/10 07:16:59;;;;;;;;;;;19.10;70.10;;;;;;490986;240;1326;-46
2021/08/10 07:19:00;;;;;;;;;;;19.10;70.10;;;;;;490883;240;2199;-47
2021/08/10 07:21:02;;;;;;;;;;;19.00;70.20;;;;;;490939;240;1193;-46
2021/08/10 07:23:03;;;;;;;;;;;19.10;70.10;;;;;;491009;240;1156;-47
2021/08/10 07:25:04;;;;;;;;;;;19.10;70.10;;;;;;490965;240;1128;-46
2021/08/10 07:27:06;;;;;;;;;;;19.00;70.10;;;;;;490876;240;1123;-47
2021/08/10 07:29:07;;;;;;;;;;;19.10;70.10;;;;;;490846;240;1102;-46
2021/08/10 07:31:09;;;;;;;;;;;19.00;70.20;;;;;;490758;240;1088;-46
2021/08/10 07:33:10;;;;;;;;;;;19.00;70.20;;;;;;490772;240;1144;-46
2021/08/10 07:35:11;;;;;;;;;;;19.00;70.30;;;;;;490752;240;1194;-47
2021/08/10 07:37:13;;;;;;;;;;;19.00;70.30;;;;;;490548;240;1211;-46
2021/08/10 07:39:14;;;;;;;;;;;19.00;70.20;;;;;;490802;240;2204;-46
2021/08/10 07:41:15;;;;;;;;;;;19.00;70.30;;;;;;490728;240;1154;-47
2021/08/10 07:43:17;;;;;;;;;;;19.00;70.40;;;;;;490638;240;1104;-47
2021/08/10 07:45:18;;;;;;;;;;;19.00;70.20;;;;;;490722;240;1172;-47
2021/08/10 07:47:19;;;;;;;;;;;19.00;70.20;;;;;;490573;240;1082;-46
2021/08/10 07:49:21;;;;;;;;;;;19.00;70.30;;;;;;490837;240;1149;-46
2021/08/10 07:51:22;;;;;;;;;;;18.90;70.40;;;;;;490844;240;1334;-47
2021/08/10 07:53:24;;;;;;;;;;;19.00;70.40;;;;;;490956;240;1276;-47
2021/08/10 07:55:25;;;;;;;;;;;18.90;70.30;;;;;;490931;240;1183;-46
2021/08/10 07:57:26;;;;;;;;;;;18.90;70.30;;;;;;490858;240;1101;-47
2021/08/10 07:59:27;;;;;;;;;;;19.00;70.30;;;;;;490888;240;2184;-47
2021/08/10 08:01:29;;;;;;;;;;;18.90;70.20;;;;;;490979;240;1096;-47
2021/08/10 08:03:30;;;;;;;;;;;19.00;70.40;;;;;;490942;240;1056;-46
2021/08/10 08:05:32;;;;;;;;;;;18.90;70.30;;;;;;491103;240;1144;-46
2021/08/10 08:07:33;;;;;;;;;;;18.90;70.30;;;;;;490748;240;1156;-47
2021/08/10 08:09:34;;;;;;;;;;;18.90;70.30;;;;;;490838;240;1155;-46
2021/08/10 08:11:35;;;;;;;;;;;19.00;70.30;;;;;;490943;240;1208;-46
2021/08/10 08:13:37;;;;;;;;;;;18.90;70.30;;;;;;491071;240;1171;-46
2021/08/10 08:15:38;;;;;;;;;;;18.90;70.40;;;;;;490936;240;1087;-46
2021/08/10 08:17:40;;;;;;;;;;;18.90;70.30;;;;;;490829;240;1114;-47
2021/08/10 08:19:41;;;;;;;;;;;18.90;70.40;;;;;;490972;240;2149;-46
2021/08/10 08:21:42;;;;;;;;;;;18.90;70.50;;;;;;490863;240;1401;-46
2021/08/10 08:23:44;;;;;;;;;;;18.90;70.40;;;;;;490894;240;1125;-46
2021/08/10 08:25:45;;;;;;;;;;;18.90;70.40;;;;;;490827;240;1185;-47
2021/08/10 08:27:46;;;;;;;;;;;18.90;70.50;;;;;;490596;240;1176;-47
2021/08/10 08:29:48;;;;;;;;;;;18.90;70.50;;;;;;490888;240;1379;-46
2021/08/10 08:31:49;;;;;;;;;;;18.90;70.60;;;;;;490809;240;1264;-47
2021/08/10 08:33:50;;;;;;;;;;;18.90;70.50;;;;;;490807;240;1140;-47
2021/08/10 08:35:52;;;;;;;;;;;18.90;70.50;;;;;;490771;240;1227;-46
2021/08/10 08:37:53;;;;;;;;;;;18.90;70.40;;;;;;490691;240;1160;-47
2021/08/10 08:39:54;;;;;;;;;;;18.90;70.50;;;;;;490719;240;2141;-47
2021/08/10 08:41:56;;;;;;;;;;;18.90;70.40;;;;;;490643;240;1165;-47
2021/08/10 08:43:57;;;;;;;;;;;18.90;70.40;;;;;;490603;240;1116;-47
2021/08/10 08:45:58;;;;;;;;;;;18.90;70.50;;;;;;490749;240;1408;-47
2021/08/10 08:48:00;;;;;;;;;;;18.90;70.50;;;;;;490936;240;1162;-46
2021/08/10 08:50:01;;;;;;;;;;;18.90;70.50;;;;;;490907;240;2041;-46
2021/08/10 08:52:02;;;;;;;;;;;18.90;70.50;;;;;;490798;240;1213;-47
2021/08/10 08:54:04;;;;;;;;;;;18.80;70.60;;;;;;490855;240;1092;-47
2021/08/10 08:56:05;;;;;;;;;;;18.80;70.50;;;;;;490740;240;1211;-47
2021/08/10 08:58:06;;;;;;;;;;;18.90;70.60;;;;;;490731;240;1242;-47
2021/08/10 09:00:08;;;;;;;;;;;18.80;70.50;;;;;;490728;240;2146;-47
2021/08/10 09:02:09;;;;;;;;;;;18.80;70.60;;;;;;490854;240;1346;-47
2021/08/10 09:04:10;;;;;;;;;;;18.90;70.50;;;;;;490710;240;1143;-46
2021/08/10 09:06:12;;;;;;;;;;;18.90;70.60;;;;;;490710;240;1719;-47
2021/08/10 09:08:13;;;;;;;;;;;18.80;70.50;;;;;;490579;240;1083;-46
2021/08/10 09:10:15;;;;;;;;;;;18.90;70.60;;;;;;490646;240;1099;-47
2021/08/10 09:12:16;;;;;;;;;;;18.80;70.60;;;;;;490863;240;1078;-46
2021/08/10 09:14:17;;;;;;;;;;;18.80;70.60;;;;;;490827;240;1103;-47
2021/08/10 09:16:20;;;;;;;;;;;18.80;70.60;;;;;;490772;240;1339;-46
2021/08/10 09:18:20;;;;;;;;;;;18.80;70.50;;;;;;490969;240;1888;-46
2021/08/10 09:20:21;;;;;;;;;;;18.90;70.50;;;;;;490797;240;2137;-46
2021/08/10 09:22:23;;;;;;;;;;;18.80;70.50;;;;;;490756;240;1141;-47
2021/08/10 09:24:24;;;;;;;;;;;18.80;70.60;;;;;;490819;240;1145;-47
2021/08/10 09:26:25;;;;;;;;;;;18.90;70.60;;;;;;490706;240;1061;-46
2021/08/10 09:28:27;;;;;;;;;;;18.80;70.50;;;;;;490763;240;1243;-46
2021/08/10 09:30:28;;;;;;;;;;;18.80;70.50;;;;;;490845;240;1128;-46
2021/08/10 09:32:29;;;;;;;;;;;18.80;70.60;;;;;;490846;240;1091;-46
2021/08/10 09:34:30;;;;;;;;;;;18.80;70.60;;;;;;490910;240;1331;-47
2021/08/10 09:36:32;;;;;;;;;;;18.80;70.60;;;;;;490849;240;1231;-46
2021/08/10 09:38:33;;;;;;;;;;;18.80;70.70;;;;;;490842;240;1181;-47
2021/08/10 09:40:34;;;;;;;;;;;18.80;70.60;;;;;;490822;240;2180;-47
2021/08/10 09:42:36;;;;;;;;;;;18.80;70.60;;;;;;490774;240;1142;-46
2021/08/10 09:44:40;;;;;;;;;;;18.80;70.60;;;;;;490835;240;1139;-46
2021/08/10 09:46:38;;;;;;;;;;;18.80;70.70;;;;;;490772;240;1332;-46
2021/08/10 09:48:40;;;;;;;;;;;18.80;70.60;;;;;;490700;240;1181;-46
2021/08/10 09:50:41;;;;;;;;;;;18.70;70.60;;;;;;490647;240;1343;-46
2021/08/10 09:52:42;;;;;;;;;;;18.70;70.70;;;;;;490747;240;1113;-46
2021/08/10 09:54:44;;;;;;;;;;;18.70;70.70;;;;;;490774;240;1163;-47
2021/08/10 09:56:47;;;;;;;;;;;18.70;70.70;;;;;;490807;240;1157;-46
2021/08/10 09:58:47;;;;;;;;;;;18.70;70.60;;;;;;491294;240;1253;-46
2021/08/10 10:00:50;;;;;;;;;;;18.70;70.70;;;;;;490960;240;2145;-47
2021/08/10 10:02:51;;;;;;;;;;;18.60;70.60;;;;;;490816;240;2093;-47
2021/08/10 10:04:52;;;;;;;;;;;18.60;70.60;;;;;;490833;240;1134;-46
2021/08/10 10:06:54;;;;;;;;;;;18.70;70.60;;;;;;490882;240;1140;-46
2021/08/10 10:08:55;;;;;;;;;;;18.70;70.60;;;;;;490802;240;1167;-46
2021/08/10 10:10:57;;;;;;;;;;;18.70;70.40;;;;;;490729;240;1215;-47
2021/08/10 10:12:58;;;;;;;;;;;18.60;70.50;;;;;;490707;240;1366;-47
2021/08/10 10:14:59;;;;;;;;;;;18.60;70.50;;;;;;490753;240;1213;-47
2021/08/10 10:17:00;;;;;;;;;;;18.60;70.50;;;;;;490670;240;2002;-46
2021/08/10 10:19:02;;;;;;;;;;;18.60;70.50;;;;;;490577;240;1074;-47
2021/08/10 10:21:03;;;;;;;;;;;18.60;70.50;;;;;;490553;240;2172;-47
2021/08/10 10:23:04;;;;;;;;;;;18.60;70.50;;;;;;490582;240;1147;-46
2021/08/10 10:25:06;;;;;;;;;;;18.90;69.90;;;;;;490677;240;1069;-46
2021/08/10 10:27:07;;;;;;;;;;;19.20;68.50;;;;;;490762;240;1190;-47
2021/08/10 10:29:08;;;;;;;;;;;19.50;67.40;;;;;;490621;240;1146;-47
2021/08/10 10:31:10;;;;;;;;;;;19.70;66.50;;;;;;490913;240;1123;-47
2021/08/10 10:33:11;;;;;;;;;;;19.90;65.90;;;;;;490841;240;1462;-47
2021/08/10 10:35:13;;;;;;;;;;;20.00;65.40;;;;;;490740;240;1069;-47
2021/08/10 10:37:14;;;;;;;;;;;20.10;65.00;;;;;;490686;240;1233;-47
2021/08/10 10:39:16;;;;;;;;;;;20.20;64.70;;;;;;490576;240;1304;-47
2021/08/10 10:41:17;;;;;;;;;;;20.30;64.50;;;;;;490568;240;2188;-47
2021/08/10 10:43:18;;;;;;;;;;;20.30;64.30;;;;;;491528;240;1216;-46
2021/08/10 10:45:20;;;;;;;;;;;20.30;64.10;;;;;;491160;240;847;-46
2021/08/10 10:47:21;;;;;;;;;;;20.40;64.00;;;;;;491097;240;1194;-47
2021/08/10 10:49:22;;;;;;;;;;;20.50;63.70;;;;;;491130;240;841;-47
2021/08/10 10:51:24;;;;;;;;;;;20.50;63.50;;;;;;491130;240;1256;-47
2021/08/10 10:53:25;;;;;;;;;;;20.60;63.50;;;;;;491654;240;1194;-47
2021/08/10 10:55:26;;;;;;;;;;;20.60;63.40;;;;;;491565;240;1337;-46
2021/08/10 10:57:28;;;;;;;;;;;20.60;63.30;;;;;;491559;240;1217;-47
2021/08/10 10:59:29;;;;;;;;;;;20.70;63.20;;;;;;491612;240;881;-47
2021/08/10 11:01:31;;;;;;;;;;;20.70;63.20;;;;;;491584;240;2188;-47
2021/08/10 11:03:32;;;;;;;;;;;20.70;63.10;;;;;;491545;240;911;-47
2021/08/10 11:05:33;;;;;;;;;;;20.70;63.00;;;;;;491593;240;860;-47
2021/08/10 11:07:35;;;;;;;;;;;20.80;62.90;;;;;;491239;240;1390;-47
2021/08/10 11:09:37;;;;;;;;;;;20.80;62.80;;;;;;491344;240;1063;-47
2021/08/10 11:11:38;;;;;;;;;;;20.80;62.70;;;;;;490600;240;1198;-47
2021/08/10 11:13:39;;;;;;;;;;;20.90;62.70;;;;;;490777;240;1162;-46
2021/08/10 11:15:40;;;;;;;;;;;20.90;62.60;;;;;;490673;240;1183;-47
2021/08/10 11:17:42;;;;;;;;;;;20.90;62.40;;;;;;490681;240;1155;-47
2021/08/10 11:19:43;;;;;;;;;;;21.00;62.50;;;;;;490621;240;1061;-47
2021/08/10 11:21:44;;;;;;;;;;;21.00;62.40;;;;;;490609;240;2211;-47
2021/08/10 11:23:46;;;;;;;;;;;21.00;62.30;;;;;;490579;240;1091;-47
2021/08/10 11:25:47;;;;;;;;;;;21.00;62.20;;;;;;490698;240;1118;-47
2021/08/10 11:27:48;;;;;;;;;;;21.10;62.20;;;;;;490050;240;1307;-47
2021/08/10 11:29:50;;;;;;;;;;;21.10;62.20;;;;;;490539;240;1158;-47
2021/08/10 11:31:54;;;;;;;;;;;21.10;62.10;;;;;;490598;240;1435;-47
2021/08/10 11:33:56;;;;;;;;;;;21.10;62.00;;;;;;490713;240;1169;-47
2021/08/10 11:35:57;;;;;;;;;;;21.10;61.90;;;;;;490714;240;1109;-47
2021/08/10 11:37:58;;;;;;;;;;;21.10;61.90;;;;;;490601;240;1202;-47
2021/08/10 11:40:00;;;;;;;;;;;21.10;61.90;;;;;;490664;240;1092;-47
2021/08/10 11:42:01;;;;;;;;;;;21.20;61.90;;;;;;490460;240;2187;-47
2021/08/10 11:44:02;;;;;;;;;;;21.20;61.90;;;;;;490571;240;1072;-47
2021/08/10 11:46:04;;;;;;;;;;;21.20;61.80;;;;;;490483;240;1119;-47
2021/08/10 11:48:05;;;;;;;;;;;21.30;61.80;;;;;;490506;240;1120;-47
2021/08/10 11:50:06;;;;;;;;;;;21.30;61.80;;;;;;490460;240;1370;-47
2021/08/10 11:52:08;;;;;;;;;;;21.20;61.80;;;;;;490638;240;1362;-47
2021/08/10 11:54:09;;;;;;;;;;;21.30;61.80;;;;;;490636;240;1435;-47
2021/08/10 11:56:10;;;;;;;;;;;21.30;61.60;;;;;;490743;240;1282;-47